Lake Balboa, California
Current Conditions -  °F | °C
As of 9:51 PM on Friday 28 Nov 2014 (Local Time) from KVNY Reporting Station
Clear Clear  
Wind Chill: 56°   Ceiling: Unl
Heat Index: 56°   Visibility: 10mi
Dew Point: 34°   Wind: 0mph
Humidity: 44%   Direction: NA
Pressure: 29.91"   Gusts: NA
Location:  34.198°N, 118.49°W
Report Text: KVNY 290551Z 00000KT 10SM CLR 13/01 A2991 RMK AO2 SLP123 T01330011 10250 20133 51003
Loading
Personal Weather Stations






























Interactive Weather Map New forecast layout! Learn more

10-Day Weather Forecast

Advertisements
Track Severe Weather on mobile